aviador You're here:

KIFA Decoded Metar

in _UNIDENTIFIED
Report Time2018-07-19 03:35:00
UTC Time2018-07-19 03:50:09
Flight Rules vfr VFR
Wind110° at 04 kt
W.Decomp.*RWY 13: 3.7 kt HW 1.4 kt LCW
W.Rank110° ranks 17
Current wind is below 110° avg. (7.6)
Visibility9999 m
Phenomena:N/A
Clouds:N/A
Expected CloudBase > 800 ft AGL from Temp-Dew spread
CeilingNone
Temp22°C (ISA +9)
Dew Point20°C (88% RH)
QNH1016 hPa
Density Alt2,428 ft
Elevation1,138 ft
Report Wrong Elevation
Raw Report
KIFA 190335Z AUTO 11004KT 10SM CLR 22/20 A2999 RMK AO2
T02160200=

Extra information for KIFA:More info

Metar Taf Metar & Taf Last 4 Metars F.Rules Stats Wind Profile Meteogram Temp Stats Metar ALERT Operation Metar Decoded Social comments